sensor_id;sensor_type;location;lat;lon;timestamp;P1;durP1;ratioP1;P2;durP2;ratioP2
66609;SDS011;53468;48.276;14.416;2023-03-05T00:04:24;24.15;;;12.43;;
66609;SDS011;53468;48.276;14.416;2023-03-05T00:09:26;24.63;;;12.18;;
66609;SDS011;53468;48.276;14.416;2023-03-05T00:14:28;27.75;;;12.25;;
66609;SDS011;53468;48.276;14.416;2023-03-05T00:19:31;28.58;;;12.73;;
66609;SDS011;53468;48.276;14.416;2023-03-05T00:24:34;26.60;;;12.68;;
66609;SDS011;53468;48.276;14.416;2023-03-05T00:29:36;34.38;;;13.10;;
66609;SDS011;53468;48.276;14.416;2023-03-05T00:34:39;29.05;;;15.15;;
66609;SDS011;53468;48.276;14.416;2023-03-05T00:39:41;29.58;;;14.02;;
66609;SDS011;53468;48.276;14.416;2023-03-05T00:44:43;28.55;;;13.68;;
66609;SDS011;53468;48.276;14.416;2023-03-05T00:49:47;28.95;;;14.63;;
66609;SDS011;53468;48.276;14.416;2023-03-05T00:54:49;25.55;;;13.82;;
66609;SDS011;53468;48.276;14.416;2023-03-05T00:59:52;28.45;;;14.02;;
66609;SDS011;53468;48.276;14.416;2023-03-05T01:04:55;36.08;;;15.20;;
66609;SDS011;53468;48.276;14.416;2023-03-05T01:09:57;27.55;;;13.38;;
66609;SDS011;53468;48.276;14.416;2023-03-05T01:14:59;27.80;;;14.07;;
66609;SDS011;53468;48.276;14.416;2023-03-05T01:20:03;28.92;;;14.65;;
66609;SDS011;53468;48.276;14.416;2023-03-05T01:25:07;32.97;;;16.30;;
66609;SDS011;53468;48.276;14.416;2023-03-05T01:30:10;28.50;;;13.40;;
66609;SDS011;53468;48.276;14.416;2023-03-05T01:35:16;34.65;;;17.13;;
66609;SDS011;53468;48.276;14.416;2023-03-05T01:40:20;27.50;;;14.50;;
66609;SDS011;53468;48.276;14.416;2023-03-05T01:45:29;28.83;;;14.27;;
66609;SDS011;53468;48.276;14.416;2023-03-05T01:50:33;26.67;;;13.95;;
66609;SDS011;53468;48.276;14.416;2023-03-05T01:55:36;30.73;;;14.45;;
66609;SDS011;53468;48.276;14.416;2023-03-05T02:00:38;28.30;;;14.40;;
66609;SDS011;53468;48.276;14.416;2023-03-05T02:05:45;32.03;;;16.55;;
66609;SDS011;53468;48.276;14.416;2023-03-05T02:10:48;32.20;;;14.32;;
66609;SDS011;53468;48.276;14.416;2023-03-05T02:15:52;35.97;;;15.98;;
66609;SDS011;53468;48.276;14.416;2023-03-05T02:21:00;36.22;;;16.02;;
66609;SDS011;53468;48.276;14.416;2023-03-05T02:26:03;37.20;;;15.07;;
66609;SDS011;53468;48.276;14.416;2023-03-05T02:31:07;34.90;;;14.80;;
66609;SDS011;53468;48.276;14.416;2023-03-05T02:36:12;33.47;;;15.95;;
66609;SDS011;53468;48.276;14.416;2023-03-05T02:41:14;32.40;;;16.10;;
66609;SDS011;53468;48.276;14.416;2023-03-05T02:46:16;33.15;;;16.23;;
66609;SDS011;53468;48.276;14.416;2023-03-05T02:51:20;32.20;;;15.50;;
66609;SDS011;53468;48.276;14.416;2023-03-05T02:56:22;31.77;;;16.33;;
66609;SDS011;53468;48.276;14.416;2023-03-05T03:01:26;30.42;;;14.82;;
66609;SDS011;53468;48.276;14.416;2023-03-05T03:06:30;26.45;;;13.20;;
66609;SDS011;53468;48.276;14.416;2023-03-05T03:11:33;29.38;;;14.73;;
66609;SDS011;53468;48.276;14.416;2023-03-05T03:16:35;27.02;;;13.73;;
66609;SDS011;53468;48.276;14.416;2023-03-05T03:21:39;32.78;;;15.63;;
66609;SDS011;53468;48.276;14.416;2023-03-05T03:26:41;30.38;;;13.10;;
66609;SDS011;53468;48.276;14.416;2023-03-05T03:31:43;29.95;;;14.57;;
66609;SDS011;53468;48.276;14.416;2023-03-05T03:36:48;38.25;;;14.85;;
66609;SDS011;53468;48.276;14.416;2023-03-05T03:41:52;26.45;;;13.80;;
66609;SDS011;53468;48.276;14.416;2023-03-05T03:46:55;29.17;;;14.35;;
66609;SDS011;53468;48.276;14.416;2023-03-05T03:51:59;33.53;;;15.20;;
66609;SDS011;53468;48.276;14.416;2023-03-05T03:57:01;26.77;;;14.05;;
66609;SDS011;53468;48.276;14.416;2023-03-05T04:02:03;33.42;;;16.27;;
66609;SDS011;53468;48.276;14.416;2023-03-05T04:07:07;32.85;;;16.10;;
66609;SDS011;53468;48.276;14.416;2023-03-05T04:12:09;31.45;;;16.05;;
66609;SDS011;53468;48.276;14.416;2023-03-05T04:17:11;33.97;;;15.57;;
66609;SDS011;53468;48.276;14.416;2023-03-05T04:22:15;28.65;;;13.25;;
66609;SDS011;53468;48.276;14.416;2023-03-05T04:27:18;26.20;;;13.95;;
66609;SDS011;53468;48.276;14.416;2023-03-05T04:32:23;33.90;;;14.88;;
66609;SDS011;53468;48.276;14.416;2023-03-05T04:37:29;35.42;;;16.50;;
66609;SDS011;53468;48.276;14.416;2023-03-05T04:42:31;33.60;;;17.30;;
66609;SDS011;53468;48.276;14.416;2023-03-05T04:47:33;36.70;;;15.70;;
66609;SDS011;53468;48.276;14.416;2023-03-05T04:52:38;29.80;;;15.02;;
66609;SDS011;53468;48.276;14.416;2023-03-05T04:57:41;31.08;;;14.65;;
66609;SDS011;53468;48.276;14.416;2023-03-05T05:02:44;30.85;;;14.38;;
66609;SDS011;53468;48.276;14.416;2023-03-05T05:07:51;33.35;;;16.13;;
66609;SDS011;53468;48.276;14.416;2023-03-05T05:12:55;28.38;;;14.98;;
66609;SDS011;53468;48.276;14.416;2023-03-05T05:17:57;32.97;;;16.20;;
66609;SDS011;53468;48.276;14.416;2023-03-05T05:23:01;31.85;;;15.93;;
66609;SDS011;53468;48.276;14.416;2023-03-05T05:28:04;36.25;;;17.90;;
66609;SDS011;53468;48.276;14.416;2023-03-05T05:33:06;29.38;;;14.73;;
66609;SDS011;53468;48.276;14.416;2023-03-05T05:38:10;37.67;;;15.65;;
66609;SDS011;53468;48.276;14.416;2023-03-05T05:43:12;32.38;;;17.00;;
66609;SDS011;53468;48.276;14.416;2023-03-05T05:48:14;29.85;;;14.35;;
66609;SDS011;53468;48.276;14.416;2023-03-05T05:53:17;28.40;;;13.55;;
66609;SDS011;53468;48.276;14.416;2023-03-05T05:58:19;33.03;;;13.98;;
66609;SDS011;53468;48.276;14.416;2023-03-05T06:03:21;33.95;;;14.32;;
66609;SDS011;53468;48.276;14.416;2023-03-05T06:08:25;39.30;;;15.55;;
66609;SDS011;53468;48.276;14.416;2023-03-05T06:13:27;30.40;;;14.80;;
66609;SDS011;53468;48.276;14.416;2023-03-05T06:18:29;32.10;;;16.50;;
66609;SDS011;53468;48.276;14.416;2023-03-05T06:23:33;33.22;;;15.88;;
66609;SDS011;53468;48.276;14.416;2023-03-05T06:28:35;30.17;;;16.45;;
66609;SDS011;53468;48.276;14.416;2023-03-05T06:33:37;30.77;;;15.65;;
66609;SDS011;53468;48.276;14.416;2023-03-05T06:38:41;36.17;;;15.82;;
66609;SDS011;53468;48.276;14.416;2023-03-05T06:43:44;31.88;;;15.48;;
66609;SDS011;53468;48.276;14.416;2023-03-05T06:48:47;28.67;;;14.40;;
66609;SDS011;53468;48.276;14.416;2023-03-05T06:53:52;33.50;;;15.27;;
66609;SDS011;53468;48.276;14.416;2023-03-05T06:58:55;37.78;;;14.25;;
66609;SDS011;53468;48.276;14.416;2023-03-05T07:03:58;31.13;;;14.93;;
66609;SDS011;53468;48.276;14.416;2023-03-05T07:09:03;33.80;;;14.05;;
66609;SDS011;53468;48.276;14.416;2023-03-05T07:14:06;34.50;;;16.02;;
66609;SDS011;53468;48.276;14.416;2023-03-05T07:19:09;29.88;;;15.02;;
66609;SDS011;53468;48.276;14.416;2023-03-05T07:24:12;36.60;;;16.45;;
66609;SDS011;53468;48.276;14.416;2023-03-05T07:29:14;33.50;;;15.43;;
66609;SDS011;53468;48.276;14.416;2023-03-05T07:34:17;29.35;;;15.15;;
66609;SDS011;53468;48.276;14.416;2023-03-05T07:39:21;31.50;;;14.50;;
66609;SDS011;53468;48.276;14.416;2023-03-05T07:44:24;32.03;;;14.95;;
66609;SDS011;53468;48.276;14.416;2023-03-05T07:49:26;33.10;;;15.02;;
66609;SDS011;53468;48.276;14.416;2023-03-05T07:54:29;35.13;;;16.33;;
66609;SDS011;53468;48.276;14.416;2023-03-05T07:59:31;30.55;;;14.98;;
66609;SDS011;53468;48.276;14.416;2023-03-05T08:04:34;34.58;;;14.75;;
66609;SDS011;53468;48.276;14.416;2023-03-05T08:09:37;37.38;;;17.23;;
66609;SDS011;53468;48.276;14.416;2023-03-05T08:14:41;35.08;;;16.00;;
66609;SDS011;53468;48.276;14.416;2023-03-05T08:19:43;38.78;;;17.50;;
66609;SDS011;53468;48.276;14.416;2023-03-05T08:24:47;33.08;;;15.73;;
66609;SDS011;53468;48.276;14.416;2023-03-05T08:29:51;33.92;;;14.48;;
66609;SDS011;53468;48.276;14.416;2023-03-05T08:34:54;37.45;;;17.35;;
66609;SDS011;53468;48.276;14.416;2023-03-05T08:39:59;34.45;;;15.27;;
66609;SDS011;53468;48.276;14.416;2023-03-05T08:45:01;39.08;;;17.55;;
66609;SDS011;53468;48.276;14.416;2023-03-05T08:50:03;38.42;;;16.23;;
66609;SDS011;53468;48.276;14.416;2023-03-05T08:55:09;33.88;;;15.40;;
66609;SDS011;53468;48.276;14.416;2023-03-05T09:00:12;27.85;;;13.65;;
66609;SDS011;53468;48.276;14.416;2023-03-05T09:05:15;35.00;;;16.83;;
66609;SDS011;53468;48.276;14.416;2023-03-05T09:10:20;30.80;;;14.70;;
66609;SDS011;53468;48.276;14.416;2023-03-05T09:15:22;33.20;;;15.43;;
66609;SDS011;53468;48.276;14.416;2023-03-05T09:20:24;38.15;;;17.10;;
66609;SDS011;53468;48.276;14.416;2023-03-05T09:25:28;30.05;;;14.80;;
66609;SDS011;53468;48.276;14.416;2023-03-05T09:30:30;33.53;;;13.70;;
66609;SDS011;53468;48.276;14.416;2023-03-05T09:35:34;29.77;;;14.50;;
66609;SDS011;53468;48.276;14.416;2023-03-05T09:40:41;27.60;;;13.43;;
66609;SDS011;53468;48.276;14.416;2023-03-05T09:45:55;26.08;;;12.77;;
66609;SDS011;53468;48.276;14.416;2023-03-05T09:51:01;32.63;;;14.70;;
66609;SDS011;53468;48.276;14.416;2023-03-05T09:56:08;28.70;;;13.50;;
66609;SDS011;53468;48.276;14.416;2023-03-05T10:01:13;23.88;;;13.27;;
66609;SDS011;53468;48.276;14.416;2023-03-05T10:06:19;27.15;;;12.35;;
66609;SDS011;53468;48.276;14.416;2023-03-05T10:11:29;28.35;;;12.48;;
66609;SDS011;53468;48.276;14.416;2023-03-05T10:16:50;30.30;;;13.68;;
66609;SDS011;53468;48.276;14.416;2023-03-05T10:22:02;28.20;;;14.25;;
66609;SDS011;53468;48.276;14.416;2023-03-05T10:27:20;27.88;;;13.07;;
66609;SDS011;53468;48.276;14.416;2023-03-05T10:32:35;22.05;;;10.90;;
66609;SDS011;53468;48.276;14.416;2023-03-05T10:43:26;21.30;;;10.95;;
66609;SDS011;53468;48.276;14.416;2023-03-05T10:48:35;25.77;;;13.77;;
66609;SDS011;53468;48.276;14.416;2023-03-05T10:53:44;20.25;;;10.60;;
66609;SDS011;53468;48.276;14.416;2023-03-05T10:58:55;23.97;;;12.20;;
66609;SDS011;53468;48.276;14.416;2023-03-05T11:03:57;24.58;;;12.07;;
66609;SDS011;53468;48.276;14.416;2023-03-05T11:09:16;22.73;;;10.93;;
66609;SDS011;53468;48.276;14.416;2023-03-05T11:14:25;29.23;;;12.38;;
66609;SDS011;53468;48.276;14.416;2023-03-05T11:19:32;24.08;;;12.23;;
66609;SDS011;53468;48.276;14.416;2023-03-05T11:24:36;18.65;;;9.48;;
66609;SDS011;53468;48.276;14.416;2023-03-05T11:29:47;24.73;;;11.85;;
66609;SDS011;53468;48.276;14.416;2023-03-05T11:34:51;20.33;;;10.73;;
66609;SDS011;53468;48.276;14.416;2023-03-05T11:45:21;19.88;;;10.57;;
66609;SDS011;53468;48.276;14.416;2023-03-05T11:50:27;20.20;;;8.93;;
66609;SDS011;53468;48.276;14.416;2023-03-05T11:55:33;17.77;;;8.73;;
66609;SDS011;53468;48.276;14.416;2023-03-05T12:00:43;20.05;;;9.10;;
66609;SDS011;53468;48.276;14.416;2023-03-05T12:05:48;18.27;;;8.85;;
66609;SDS011;53468;48.276;14.416;2023-03-05T12:10:54;20.65;;;9.90;;
66609;SDS011;53468;48.276;14.416;2023-03-05T12:21:27;16.25;;;7.65;;
66609;SDS011;53468;48.276;14.416;2023-03-05T12:26:52;19.65;;;10.43;;
66609;SDS011;53468;48.276;14.416;2023-03-05T12:31:59;20.85;;;9.80;;
66609;SDS011;53468;48.276;14.416;2023-03-05T12:37:02;17.92;;;9.05;;
66609;SDS011;53468;48.276;14.416;2023-03-05T12:47:47;16.92;;;8.77;;
66609;SDS011;53468;48.276;14.416;2023-03-05T12:58:33;19.40;;;9.25;;
66609;SDS011;53468;48.276;14.416;2023-03-05T13:03:44;19.92;;;10.95;;
66609;SDS011;53468;48.276;14.416;2023-03-05T13:08:54;19.88;;;10.27;;
66609;SDS011;53468;48.276;14.416;2023-03-05T13:13:58;21.65;;;10.30;;
66609;SDS011;53468;48.276;14.416;2023-03-05T13:19:02;21.50;;;10.45;;
66609;SDS011;53468;48.276;14.416;2023-03-05T13:24:12;17.23;;;9.57;;
66609;SDS011;53468;48.276;14.416;2023-03-05T13:29:18;17.52;;;8.85;;
66609;SDS011;53468;48.276;14.416;2023-03-05T13:34:23;23.00;;;10.02;;
66609;SDS011;53468;48.276;14.416;2023-03-05T13:39:28;16.85;;;8.55;;
66609;SDS011;53468;48.276;14.416;2023-03-05T13:44:33;17.80;;;9.10;;
66609;SDS011;53468;48.276;14.416;2023-03-05T13:49:36;20.27;;;10.05;;
66609;SDS011;53468;48.276;14.416;2023-03-05T13:54:38;19.10;;;10.13;;
66609;SDS011;53468;48.276;14.416;2023-03-05T13:59:40;24.50;;;8.95;;
66609;SDS011;53468;48.276;14.416;2023-03-05T14:04:54;14.95;;;7.55;;
66609;SDS011;53468;48.276;14.416;2023-03-05T14:09:56;14.48;;;7.35;;
66609;SDS011;53468;48.276;14.416;2023-03-05T14:14:59;19.58;;;9.88;;
66609;SDS011;53468;48.276;14.416;2023-03-05T14:20:08;17.80;;;9.05;;
66609;SDS011;53468;48.276;14.416;2023-03-05T14:25:25;16.30;;;7.10;;
66609;SDS011;53468;48.276;14.416;2023-03-05T14:30:33;18.55;;;8.77;;
66609;SDS011;53468;48.276;14.416;2023-03-05T14:35:37;18.40;;;7.65;;
66609;SDS011;53468;48.276;14.416;2023-03-05T14:40:39;16.10;;;8.18;;
66609;SDS011;53468;48.276;14.416;2023-03-05T14:45:41;18.00;;;9.02;;
66609;SDS011;53468;48.276;14.416;2023-03-05T14:50:46;20.20;;;8.38;;
66609;SDS011;53468;48.276;14.416;2023-03-05T14:55:51;19.73;;;8.27;;
66609;SDS011;53468;48.276;14.416;2023-03-05T15:00:55;17.83;;;8.45;;
66609;SDS011;53468;48.276;14.416;2023-03-05T15:05:59;17.60;;;7.60;;
66609;SDS011;53468;48.276;14.416;2023-03-05T15:11:02;14.82;;;8.63;;
66609;SDS011;53468;48.276;14.416;2023-03-05T15:16:06;19.45;;;8.88;;
66609;SDS011;53468;48.276;14.416;2023-03-05T15:21:10;16.25;;;7.75;;
66609;SDS011;53468;48.276;14.416;2023-03-05T15:26:13;15.32;;;7.20;;
66609;SDS011;53468;48.276;14.416;2023-03-05T15:31:15;18.02;;;8.63;;
66609;SDS011;53468;48.276;14.416;2023-03-05T15:36:19;20.55;;;9.05;;
66609;SDS011;53468;48.276;14.416;2023-03-05T15:41:23;23.48;;;10.15;;
66609;SDS011;53468;48.276;14.416;2023-03-05T15:46:25;17.02;;;7.95;;
66609;SDS011;53468;48.276;14.416;2023-03-05T15:51:30;22.48;;;9.07;;
66609;SDS011;53468;48.276;14.416;2023-03-05T15:56:32;15.68;;;7.22;;
66609;SDS011;53468;48.276;14.416;2023-03-05T16:01:34;17.95;;;8.85;;
66609;SDS011;53468;48.276;14.416;2023-03-05T16:06:39;18.65;;;8.52;;
66609;SDS011;53468;48.276;14.416;2023-03-05T16:11:41;18.55;;;9.70;;
66609;SDS011;53468;48.276;14.416;2023-03-05T16:16:47;20.40;;;9.30;;
66609;SDS011;53468;48.276;14.416;2023-03-05T16:21:51;21.35;;;8.23;;
66609;SDS011;53468;48.276;14.416;2023-03-05T16:26:53;19.35;;;9.05;;
66609;SDS011;53468;48.276;14.416;2023-03-05T16:31:55;18.85;;;8.15;;
66609;SDS011;53468;48.276;14.416;2023-03-05T16:36:59;16.65;;;8.13;;
66609;SDS011;53468;48.276;14.416;2023-03-05T16:42:03;18.23;;;7.13;;
66609;SDS011;53468;48.276;14.416;2023-03-05T16:47:07;15.98;;;7.97;;
66609;SDS011;53468;48.276;14.416;2023-03-05T16:52:12;17.60;;;7.63;;
66609;SDS011;53468;48.276;14.416;2023-03-05T16:57:14;14.80;;;7.13;;
66609;SDS011;53468;48.276;14.416;2023-03-05T17:02:17;16.52;;;7.60;;
66609;SDS011;53468;48.276;14.416;2023-03-05T17:07:21;13.75;;;7.43;;
66609;SDS011;53468;48.276;14.416;2023-03-05T17:12:25;15.88;;;7.55;;
66609;SDS011;53468;48.276;14.416;2023-03-05T17:17:27;19.83;;;8.32;;
66609;SDS011;53468;48.276;14.416;2023-03-05T17:22:32;18.05;;;8.63;;
66609;SDS011;53468;48.276;14.416;2023-03-05T17:27:34;17.40;;;7.75;;
66609;SDS011;53468;48.276;14.416;2023-03-05T17:32:37;16.67;;;7.38;;
66609;SDS011;53468;48.276;14.416;2023-03-05T17:37:41;17.92;;;7.13;;
66609;SDS011;53468;48.276;14.416;2023-03-05T17:42:43;17.00;;;7.35;;
66609;SDS011;53468;48.276;14.416;2023-03-05T17:47:45;16.73;;;8.48;;
66609;SDS011;53468;48.276;14.416;2023-03-05T17:52:49;16.90;;;7.45;;
66609;SDS011;53468;48.276;14.416;2023-03-05T17:57:51;16.05;;;7.68;;
66609;SDS011;53468;48.276;14.416;2023-03-05T18:02:54;16.65;;;8.30;;
66609;SDS011;53468;48.276;14.416;2023-03-05T18:07:57;21.35;;;8.20;;
66609;SDS011;53468;48.276;14.416;2023-03-05T18:13:01;14.13;;;7.97;;
66609;SDS011;53468;48.276;14.416;2023-03-05T18:18:03;18.08;;;7.47;;
66609;SDS011;53468;48.276;14.416;2023-03-05T18:23:08;15.88;;;7.30;;
66609;SDS011;53468;48.276;14.416;2023-03-05T18:28:11;19.48;;;7.78;;
66609;SDS011;53468;48.276;14.416;2023-03-05T18:33:16;20.20;;;8.50;;
66609;SDS011;53468;48.276;14.416;2023-03-05T18:38:21;17.15;;;8.05;;
66609;SDS011;53468;48.276;14.416;2023-03-05T18:43:25;16.90;;;6.85;;
66609;SDS011;53468;48.276;14.416;2023-03-05T18:48:28;14.20;;;7.53;;
66609;SDS011;53468;48.276;14.416;2023-03-05T18:53:33;17.98;;;7.10;;
66609;SDS011;53468;48.276;14.416;2023-03-05T18:58:36;15.60;;;8.18;;
66609;SDS011;53468;48.276;14.416;2023-03-05T19:03:39;13.65;;;7.05;;
66609;SDS011;53468;48.276;14.416;2023-03-05T19:08:42;15.43;;;5.45;;
66609;SDS011;53468;48.276;14.416;2023-03-05T19:13:45;12.02;;;4.85;;
66609;SDS011;53468;48.276;14.416;2023-03-05T19:19:11;12.40;;;5.00;;
66609;SDS011;53468;48.276;14.416;2023-03-05T19:24:18;19.33;;;5.78;;
66609;SDS011;53468;48.276;14.416;2023-03-05T19:29:21;11.63;;;4.38;;
66609;SDS011;53468;48.276;14.416;2023-03-05T19:34:23;12.27;;;4.90;;
66609;SDS011;53468;48.276;14.416;2023-03-05T19:39:27;17.00;;;5.43;;
66609;SDS011;53468;48.276;14.416;2023-03-05T19:44:31;12.55;;;5.55;;
66609;SDS011;53468;48.276;14.416;2023-03-05T19:49:34;12.88;;;5.35;;
66609;SDS011;53468;48.276;14.416;2023-03-05T19:54:38;16.20;;;5.47;;
66609;SDS011;53468;48.276;14.416;2023-03-05T19:59:40;13.40;;;5.05;;
66609;SDS011;53468;48.276;14.416;2023-03-05T20:04:43;10.73;;;5.05;;
66609;SDS011;53468;48.276;14.416;2023-03-05T20:10:07;10.63;;;5.05;;
66609;SDS011;53468;48.276;14.416;2023-03-05T20:15:10;9.23;;;3.75;;
66609;SDS011;53468;48.276;14.416;2023-03-05T20:20:13;9.82;;;3.83;;
66609;SDS011;53468;48.276;14.416;2023-03-05T20:25:18;10.73;;;4.38;;
66609;SDS011;53468;48.276;14.416;2023-03-05T20:30:23;8.25;;;3.92;;
66609;SDS011;53468;48.276;14.416;2023-03-05T20:35:26;8.30;;;3.92;;
66609;SDS011;53468;48.276;14.416;2023-03-05T20:40:29;12.43;;;5.50;;
66609;SDS011;53468;48.276;14.416;2023-03-05T20:45:32;12.25;;;5.03;;
66609;SDS011;53468;48.276;14.416;2023-03-05T20:50:34;7.78;;;3.28;;
66609;SDS011;53468;48.276;14.416;2023-03-05T20:55:39;7.20;;;3.30;;
66609;SDS011;53468;48.276;14.416;2023-03-05T21:00:41;7.93;;;3.97;;
66609;SDS011;53468;48.276;14.416;2023-03-05T21:05:43;9.27;;;3.65;;
66609;SDS011;53468;48.276;14.416;2023-03-05T21:10:48;5.35;;;3.35;;
66609;SDS011;53468;48.276;14.416;2023-03-05T21:15:51;5.28;;;2.72;;
66609;SDS011;53468;48.276;14.416;2023-03-05T21:20:53;8.95;;;3.10;;
66609;SDS011;53468;48.276;14.416;2023-03-05T21:25:57;6.70;;;3.05;;
66609;SDS011;53468;48.276;14.416;2023-03-05T21:31:04;8.00;;;3.70;;
66609;SDS011;53468;48.276;14.416;2023-03-05T21:36:08;6.25;;;3.30;;
66609;SDS011;53468;48.276;14.416;2023-03-05T21:41:12;6.90;;;3.05;;
66609;SDS011;53468;48.276;14.416;2023-03-05T21:46:14;10.35;;;3.10;;
66609;SDS011;53468;48.276;14.416;2023-03-05T21:57:16;8.30;;;3.78;;
66609;SDS011;53468;48.276;14.416;2023-03-05T22:02:19;8.45;;;3.55;;
66609;SDS011;53468;48.276;14.416;2023-03-05T22:07:22;7.53;;;3.50;;
66609;SDS011;53468;48.276;14.416;2023-03-05T22:12:37;6.70;;;3.13;;
66609;SDS011;53468;48.276;14.416;2023-03-05T22:18:11;5.70;;;3.28;;
66609;SDS011;53468;48.276;14.416;2023-03-05T22:23:15;7.68;;;3.28;;
66609;SDS011;53468;48.276;14.416;2023-03-05T22:28:19;10.70;;;4.38;;
66609;SDS011;53468;48.276;14.416;2023-03-05T22:33:21;9.98;;;4.22;;
66609;SDS011;53468;48.276;14.416;2023-03-05T22:38:24;9.10;;;4.03;;
66609;SDS011;53468;48.276;14.416;2023-03-05T22:43:28;12.52;;;5.18;;
66609;SDS011;53468;48.276;14.416;2023-03-05T22:48:30;13.30;;;5.18;;
66609;SDS011;53468;48.276;14.416;2023-03-05T22:53:32;11.85;;;5.70;;
66609;SDS011;53468;48.276;14.416;2023-03-05T22:58:36;8.55;;;5.10;;
66609;SDS011;53468;48.276;14.416;2023-03-05T23:03:39;14.32;;;5.97;;
66609;SDS011;53468;48.276;14.416;2023-03-05T23:08:41;9.80;;;5.70;;
66609;SDS011;53468;48.276;14.416;2023-03-05T23:13:45;16.70;;;5.20;;
66609;SDS011;53468;48.276;14.416;2023-03-05T23:18:47;11.95;;;5.25;;
66609;SDS011;53468;48.276;14.416;2023-03-05T23:23:49;10.93;;;4.85;;
66609;SDS011;53468;48.276;14.416;2023-03-05T23:28:53;11.10;;;5.10;;
66609;SDS011;53468;48.276;14.416;2023-03-05T23:33:55;9.40;;;4.72;;
66609;SDS011;53468;48.276;14.416;2023-03-05T23:38:58;11.50;;;5.88;;
66609;SDS011;53468;48.276;14.416;2023-03-05T23:44:03;14.18;;;5.80;;
66609;SDS011;53468;48.276;14.416;2023-03-05T23:49:05;11.00;;;5.03;;
66609;SDS011;53468;48.276;14.416;2023-03-05T23:54:07;16.08;;;6.00;;
66609;SDS011;53468;48.276;14.416;2023-03-05T23:59:11;9.85;;;5.38;;
